sensor_id;sensor_type;location;lat;lon;timestamp;temperature;humidity
25937;DHT22;13733;51.178;4.450;2022-09-09T00:00:38;15.20;99.90
25937;DHT22;13733;51.178;4.450;2022-09-09T00:03:16;15.10;99.90
25937;DHT22;13733;51.178;4.450;2022-09-09T00:08:22;15.10;99.90
25937;DHT22;13733;51.178;4.450;2022-09-09T00:10:58;15.00;99.90
25937;DHT22;13733;51.178;4.450;2022-09-09T00:13:42;15.00;99.90
25937;DHT22;13733;51.178;4.450;2022-09-09T00:16:15;15.00;99.90
25937;DHT22;13733;51.178;4.450;2022-09-09T00:21:37;15.00;99.90
25937;DHT22;13733;51.178;4.450;2022-09-09T00:24:41;15.00;99.90
25937;DHT22;13733;51.178;4.450;2022-09-09T00:27:23;15.00;99.90
25937;DHT22;13733;51.178;4.450;2022-09-09T00:30:14;14.90;99.90
25937;DHT22;13733;51.178;4.450;2022-09-09T00:32:44;14.90;99.90
25937;DHT22;13733;51.178;4.450;2022-09-09T00:37:42;15.00;99.90
25937;DHT22;13733;51.178;4.450;2022-09-09T00:40:41;15.00;99.90
25937;DHT22;13733;51.178;4.450;2022-09-09T00:48:54;15.20;99.90
25937;DHT22;13733;51.178;4.450;2022-09-09T00:54:28;15.10;99.90
25937;DHT22;13733;51.178;4.450;2022-09-09T00:57:07;15.00;99.90
25937;DHT22;13733;51.178;4.450;2022-09-09T00:59:51;15.10;99.90
25937;DHT22;13733;51.178;4.450;2022-09-09T01:07:51;15.10;99.90
25937;DHT22;13733;51.178;4.450;2022-09-09T01:10:49;15.10;99.90
25937;DHT22;13733;51.178;4.450;2022-09-09T01:13:28;15.20;99.90
25937;DHT22;13733;51.178;4.450;2022-09-09T01:16:08;15.20;99.90
25937;DHT22;13733;51.178;4.450;2022-09-09T01:18:51;15.20;99.90
25937;DHT22;13733;51.178;4.450;2022-09-09T01:26:44;15.10;99.90
25937;DHT22;13733;51.178;4.450;2022-09-09T01:29:21;15.10;99.90
25937;DHT22;13733;51.178;4.450;2022-09-09T01:31:59;15.10;99.90
25937;DHT22;13733;51.178;4.450;2022-09-09T01:34:32;15.00;99.90
25937;DHT22;13733;51.178;4.450;2022-09-09T01:37:07;15.00;99.90
25937;DHT22;13733;51.178;4.450;2022-09-09T01:39:37;14.90;99.90
25937;DHT22;13733;51.178;4.450;2022-09-09T01:42:11;14.90;99.90
25937;DHT22;13733;51.178;4.450;2022-09-09T01:44:38;15.00;99.90
25937;DHT22;13733;51.178;4.450;2022-09-09T01:47:05;15.00;99.90
25937;DHT22;13733;51.178;4.450;2022-09-09T01:49:31;14.90;99.90
25937;DHT22;13733;51.178;4.450;2022-09-09T01:51:59;14.90;99.90
25937;DHT22;13733;51.178;4.450;2022-09-09T01:54:31;14.90;99.90
25937;DHT22;13733;51.178;4.450;2022-09-09T02:02:39;14.90;99.90
25937;DHT22;13733;51.178;4.450;2022-09-09T02:05:27;14.90;99.90
25937;DHT22;13733;51.178;4.450;2022-09-09T02:08:15;14.90;99.90
25937;DHT22;13733;51.178;4.450;2022-09-09T02:11:09;14.80;99.90
25937;DHT22;13733;51.178;4.450;2022-09-09T02:13:46;14.80;99.90
25937;DHT22;13733;51.178;4.450;2022-09-09T02:16:21;14.80;99.90
25937;DHT22;13733;51.178;4.450;2022-09-09T02:21:31;14.80;99.90
25937;DHT22;13733;51.178;4.450;2022-09-09T02:24:02;14.80;99.90
25937;DHT22;13733;51.178;4.450;2022-09-09T02:26:33;14.80;99.90
25937;DHT22;13733;51.178;4.450;2022-09-09T02:29:08;14.70;99.90
25937;DHT22;13733;51.178;4.450;2022-09-09T02:31:36;14.70;99.90
25937;DHT22;13733;51.178;4.450;2022-09-09T02:34:06;14.80;99.90
25937;DHT22;13733;51.178;4.450;2022-09-09T02:36:37;14.80;99.90
25937;DHT22;13733;51.178;4.450;2022-09-09T02:39:08;14.70;99.90
25937;DHT22;13733;51.178;4.450;2022-09-09T02:41:37;14.70;99.90
25937;DHT22;13733;51.178;4.450;2022-09-09T02:44:12;14.80;99.90
25937;DHT22;13733;51.178;4.450;2022-09-09T02:49:37;14.80;99.90
25937;DHT22;13733;51.178;4.450;2022-09-09T02:52:11;14.80;99.90
25937;DHT22;13733;51.178;4.450;2022-09-09T02:54:41;14.80;99.90
25937;DHT22;13733;51.178;4.450;2022-09-09T02:57:14;14.80;99.90
25937;DHT22;13733;51.178;4.450;2022-09-09T02:59:43;14.80;99.90
25937;DHT22;13733;51.178;4.450;2022-09-09T03:02:11;14.80;99.90
25937;DHT22;13733;51.178;4.450;2022-09-09T03:04:38;14.80;99.90
25937;DHT22;13733;51.178;4.450;2022-09-09T03:07:04;14.70;99.90
25937;DHT22;13733;51.178;4.450;2022-09-09T03:09:30;14.80;99.90
25937;DHT22;13733;51.178;4.450;2022-09-09T03:11:56;14.80;99.90
25937;DHT22;13733;51.178;4.450;2022-09-09T03:14:24;14.80;99.90
25937;DHT22;13733;51.178;4.450;2022-09-09T03:16:52;14.80;99.90
25937;DHT22;13733;51.178;4.450;2022-09-09T03:19:19;14.70;99.90
25937;DHT22;13733;51.178;4.450;2022-09-09T03:21:46;14.80;99.90
25937;DHT22;13733;51.178;4.450;2022-09-09T03:24:13;14.70;99.90
25937;DHT22;13733;51.178;4.450;2022-09-09T03:26:40;14.70;99.90
25937;DHT22;13733;51.178;4.450;2022-09-09T03:29:09;14.70;99.90
25937;DHT22;13733;51.178;4.450;2022-09-09T03:31:35;14.80;99.90
25937;DHT22;13733;51.178;4.450;2022-09-09T03:34:02;14.80;99.90
25937;DHT22;13733;51.178;4.450;2022-09-09T03:36:31;14.80;99.90
25937;DHT22;13733;51.178;4.450;2022-09-09T03:38:57;14.80;99.90
25937;DHT22;13733;51.178;4.450;2022-09-09T03:41:25;14.70;99.90
25937;DHT22;13733;51.178;4.450;2022-09-09T03:43:52;14.70;99.90
25937;DHT22;13733;51.178;4.450;2022-09-09T03:46:19;14.70;99.90
25937;DHT22;13733;51.178;4.450;2022-09-09T03:48:45;14.70;99.90
25937;DHT22;13733;51.178;4.450;2022-09-09T03:51:10;14.80;99.90
25937;DHT22;13733;51.178;4.450;2022-09-09T03:53:36;14.70;99.90
25937;DHT22;13733;51.178;4.450;2022-09-09T03:56:04;14.80;99.90
25937;DHT22;13733;51.178;4.450;2022-09-09T03:58:33;14.80;99.90
25937;DHT22;13733;51.178;4.450;2022-09-09T04:01:07;14.80;99.90
25937;DHT22;13733;51.178;4.450;2022-09-09T04:03:39;14.80;99.90
25937;DHT22;13733;51.178;4.450;2022-09-09T04:06:07;14.80;99.90
25937;DHT22;13733;51.178;4.450;2022-09-09T04:08:35;14.90;99.90
25937;DHT22;13733;51.178;4.450;2022-09-09T04:11:02;14.90;99.90
25937;DHT22;13733;51.178;4.450;2022-09-09T04:13:35;14.90;99.90
25937;DHT22;13733;51.178;4.450;2022-09-09T04:16:03;14.90;99.90
25937;DHT22;13733;51.178;4.450;2022-09-09T04:18:30;14.90;99.90
25937;DHT22;13733;51.178;4.450;2022-09-09T04:20:56;14.90;99.90
25937;DHT22;13733;51.178;4.450;2022-09-09T04:23:28;14.90;99.90
25937;DHT22;13733;51.178;4.450;2022-09-09T04:25:57;15.00;99.90
25937;DHT22;13733;51.178;4.450;2022-09-09T04:28:33;15.00;99.90
25937;DHT22;13733;51.178;4.450;2022-09-09T04:31:08;15.00;99.90
25937;DHT22;13733;51.178;4.450;2022-09-09T04:33:37;15.00;99.90
25937;DHT22;13733;51.178;4.450;2022-09-09T04:36:07;15.00;99.90
25937;DHT22;13733;51.178;4.450;2022-09-09T04:38:32;15.00;99.90
25937;DHT22;13733;51.178;4.450;2022-09-09T04:40:59;14.90;99.90
25937;DHT22;13733;51.178;4.450;2022-09-09T04:43:26;14.90;99.90
25937;DHT22;13733;51.178;4.450;2022-09-09T04:45:53;14.90;99.90
25937;DHT22;13733;51.178;4.450;2022-09-09T04:48:21;15.00;99.90
25937;DHT22;13733;51.178;4.450;2022-09-09T04:53:21;14.90;99.90
25937;DHT22;13733;51.178;4.450;2022-09-09T04:55:47;15.00;99.90
25937;DHT22;13733;51.178;4.450;2022-09-09T04:58:15;14.90;99.90
25937;DHT22;13733;51.178;4.450;2022-09-09T05:00:41;14.90;99.90
25937;DHT22;13733;51.178;4.450;2022-09-09T05:03:09;14.90;99.90
25937;DHT22;13733;51.178;4.450;2022-09-09T05:05:35;15.00;99.90
25937;DHT22;13733;51.178;4.450;2022-09-09T05:08:07;15.00;99.90
25937;DHT22;13733;51.178;4.450;2022-09-09T05:10:36;14.90;99.90
25937;DHT22;13733;51.178;4.450;2022-09-09T05:13:03;15.00;99.90
25937;DHT22;13733;51.178;4.450;2022-09-09T05:15:30;15.00;99.90
25937;DHT22;13733;51.178;4.450;2022-09-09T05:18:01;15.10;99.90
25937;DHT22;13733;51.178;4.450;2022-09-09T05:20:29;15.10;99.90
25937;DHT22;13733;51.178;4.450;2022-09-09T05:22:56;15.30;99.90
25937;DHT22;13733;51.178;4.450;2022-09-09T05:25:24;15.30;99.90
25937;DHT22;13733;51.178;4.450;2022-09-09T05:27:54;15.30;99.90
25937;DHT22;13733;51.178;4.450;2022-09-09T05:30:21;15.40;99.90
25937;DHT22;13733;51.178;4.450;2022-09-09T05:32:49;15.30;99.90
25937;DHT22;13733;51.178;4.450;2022-09-09T05:35:17;15.30;99.90
25937;DHT22;13733;51.178;4.450;2022-09-09T05:37:44;15.40;99.90
25937;DHT22;13733;51.178;4.450;2022-09-09T05:40:11;15.50;99.90
25937;DHT22;13733;51.178;4.450;2022-09-09T05:42:39;15.40;99.90
25937;DHT22;13733;51.178;4.450;2022-09-09T05:45:07;15.40;99.90
25937;DHT22;13733;51.178;4.450;2022-09-09T05:47:34;15.40;99.90
25937;DHT22;13733;51.178;4.450;2022-09-09T05:50:01;15.40;99.90
25937;DHT22;13733;51.178;4.450;2022-09-09T05:52:27;15.50;99.90
25937;DHT22;13733;51.178;4.450;2022-09-09T05:54:55;15.60;99.90
25937;DHT22;13733;51.178;4.450;2022-09-09T05:57:22;15.60;99.90
25937;DHT22;13733;51.178;4.450;2022-09-09T05:59:49;15.70;99.90
25937;DHT22;13733;51.178;4.450;2022-09-09T06:02:16;15.60;99.90
25937;DHT22;13733;51.178;4.450;2022-09-09T06:04:41;15.60;99.90
25937;DHT22;13733;51.178;4.450;2022-09-09T06:07:07;15.60;99.90
25937;DHT22;13733;51.178;4.450;2022-09-09T06:09:34;15.60;99.90
25937;DHT22;13733;51.178;4.450;2022-09-09T06:12:00;15.60;99.90
25937;DHT22;13733;51.178;4.450;2022-09-09T06:14:27;15.60;99.90
25937;DHT22;13733;51.178;4.450;2022-09-09T06:16:56;15.70;99.90
25937;DHT22;13733;51.178;4.450;2022-09-09T06:19:25;15.70;99.90
25937;DHT22;13733;51.178;4.450;2022-09-09T06:21:54;15.90;99.90
25937;DHT22;13733;51.178;4.450;2022-09-09T06:24:21;16.00;99.90
25937;DHT22;13733;51.178;4.450;2022-09-09T06:26:47;16.00;99.90
25937;DHT22;13733;51.178;4.450;2022-09-09T06:29:19;16.20;99.90
25937;DHT22;13733;51.178;4.450;2022-09-09T06:31:45;16.20;99.90
25937;DHT22;13733;51.178;4.450;2022-09-09T06:34:20;16.20;99.90
25937;DHT22;13733;51.178;4.450;2022-09-09T06:36:50;16.40;99.90
25937;DHT22;13733;51.178;4.450;2022-09-09T06:39:16;16.50;99.90
25937;DHT22;13733;51.178;4.450;2022-09-09T06:41:42;16.40;99.90
25937;DHT22;13733;51.178;4.450;2022-09-09T06:44:20;16.40;99.90
25937;DHT22;13733;51.178;4.450;2022-09-09T06:46:45;16.40;99.90
25937;DHT22;13733;51.178;4.450;2022-09-09T06:49:13;16.40;99.90
25937;DHT22;13733;51.178;4.450;2022-09-09T06:51:40;16.50;99.90
25937;DHT22;13733;51.178;4.450;2022-09-09T06:54:11;16.60;99.90
25937;DHT22;13733;51.178;4.450;2022-09-09T06:56:40;16.70;99.90
25937;DHT22;13733;51.178;4.450;2022-09-09T06:59:12;16.80;99.90
25937;DHT22;13733;51.178;4.450;2022-09-09T07:01:42;16.90;99.90
25937;DHT22;13733;51.178;4.450;2022-09-09T07:04:11;16.80;99.90
25937;DHT22;13733;51.178;4.450;2022-09-09T07:06:43;16.70;99.90
25937;DHT22;13733;51.178;4.450;2022-09-09T07:09:15;16.70;99.90
25937;DHT22;13733;51.178;4.450;2022-09-09T07:11:46;16.80;99.90
25937;DHT22;13733;51.178;4.450;2022-09-09T07:14:13;16.80;99.90
25937;DHT22;13733;51.178;4.450;2022-09-09T07:16:41;17.00;99.90
25937;DHT22;13733;51.178;4.450;2022-09-09T07:19:08;17.10;99.90
25937;DHT22;13733;51.178;4.450;2022-09-09T07:21:34;17.20;99.90
25937;DHT22;13733;51.178;4.450;2022-09-09T07:24:01;17.30;99.90
25937;DHT22;13733;51.178;4.450;2022-09-09T07:26:28;17.30;99.90
25937;DHT22;13733;51.178;4.450;2022-09-09T07:28:56;17.40;99.90
25937;DHT22;13733;51.178;4.450;2022-09-09T07:31:28;17.50;99.90
25937;DHT22;13733;51.178;4.450;2022-09-09T07:33:56;17.60;99.90
25937;DHT22;13733;51.178;4.450;2022-09-09T07:36:28;17.60;99.90
25937;DHT22;13733;51.178;4.450;2022-09-09T07:38:57;17.50;99.90
25937;DHT22;13733;51.178;4.450;2022-09-09T07:41:35;17.50;99.90
25937;DHT22;13733;51.178;4.450;2022-09-09T07:44:13;17.30;99.90
25937;DHT22;13733;51.178;4.450;2022-09-09T07:46:41;17.40;99.90
25937;DHT22;13733;51.178;4.450;2022-09-09T07:49:09;17.40;99.90
25937;DHT22;13733;51.178;4.450;2022-09-09T07:51:38;17.30;99.90
25937;DHT22;13733;51.178;4.450;2022-09-09T07:54:08;17.60;99.90
25937;DHT22;13733;51.178;4.450;2022-09-09T07:56:37;17.60;99.90
25937;DHT22;13733;51.178;4.450;2022-09-09T07:59:04;17.70;99.90
25937;DHT22;13733;51.178;4.450;2022-09-09T08:01:41;17.60;99.90
25937;DHT22;13733;51.178;4.450;2022-09-09T08:04:10;17.60;99.90
25937;DHT22;13733;51.178;4.450;2022-09-09T08:06:49;17.70;99.90
25937;DHT22;13733;51.178;4.450;2022-09-09T08:09:17;17.70;99.90
25937;DHT22;13733;51.178;4.450;2022-09-09T08:11:43;17.90;99.90
25937;DHT22;13733;51.178;4.450;2022-09-09T08:14:11;17.80;99.90
25937;DHT22;13733;51.178;4.450;2022-09-09T08:16:43;17.80;99.90
25937;DHT22;13733;51.178;4.450;2022-09-09T08:19:11;17.90;99.90
25937;DHT22;13733;51.178;4.450;2022-09-09T08:21:39;18.00;99.90
25937;DHT22;13733;51.178;4.450;2022-09-09T08:24:07;17.90;99.90
25937;DHT22;13733;51.178;4.450;2022-09-09T08:26:36;18.10;99.90
25937;DHT22;13733;51.178;4.450;2022-09-09T08:29:05;18.00;99.90
25937;DHT22;13733;51.178;4.450;2022-09-09T08:31:34;17.80;99.90
25937;DHT22;13733;51.178;4.450;2022-09-09T08:34:01;18.00;99.90
25937;DHT22;13733;51.178;4.450;2022-09-09T08:36:34;17.80;99.90
25937;DHT22;13733;51.178;4.450;2022-09-09T08:39:02;17.80;99.90
25937;DHT22;13733;51.178;4.450;2022-09-09T08:46:38;18.20;99.90
25937;DHT22;13733;51.178;4.450;2022-09-09T08:51:56;18.40;99.90
25937;DHT22;13733;51.178;4.450;2022-09-09T08:54:23;18.50;99.90
25937;DHT22;13733;51.178;4.450;2022-09-09T08:56:54;18.40;99.90
25937;DHT22;13733;51.178;4.450;2022-09-09T08:59:21;18.20;99.90
25937;DHT22;13733;51.178;4.450;2022-09-09T09:05:12;18.00;99.90
25937;DHT22;13733;51.178;4.450;2022-09-09T09:13:52;18.00;99.90
25937;DHT22;13733;51.178;4.450;2022-09-09T09:16:45;17.80;99.90
25937;DHT22;13733;51.178;4.450;2022-09-09T09:19:15;17.70;99.90
25937;DHT22;13733;51.178;4.450;2022-09-09T09:21:48;17.60;99.90
25937;DHT22;13733;51.178;4.450;2022-09-09T09:24:34;17.40;99.90
25937;DHT22;13733;51.178;4.450;2022-09-09T09:27:13;17.50;99.90
25937;DHT22;13733;51.178;4.450;2022-09-09T09:29:44;17.40;99.90
25937;DHT22;13733;51.178;4.450;2022-09-09T09:32:14;17.30;99.90
25937;DHT22;13733;51.178;4.450;2022-09-09T09:34:41;17.20;99.90
25937;DHT22;13733;51.178;4.450;2022-09-09T09:37:20;17.10;99.90
25937;DHT22;13733;51.178;4.450;2022-09-09T09:39:47;17.00;99.90
25937;DHT22;13733;51.178;4.450;2022-09-09T09:42:17;17.10;99.90
25937;DHT22;13733;51.178;4.450;2022-09-09T09:44:46;17.00;99.90
25937;DHT22;13733;51.178;4.450;2022-09-09T09:47:20;17.10;99.90
25937;DHT22;13733;51.178;4.450;2022-09-09T09:50:17;17.20;99.90
25937;DHT22;13733;51.178;4.450;2022-09-09T09:53:00;17.10;99.90
25937;DHT22;13733;51.178;4.450;2022-09-09T09:55:31;17.30;99.90
25937;DHT22;13733;51.178;4.450;2022-09-09T09:58:05;17.40;99.90
25937;DHT22;13733;51.178;4.450;2022-09-09T10:00:33;17.50;99.90
25937;DHT22;13733;51.178;4.450;2022-09-09T10:05:49;17.40;99.90
25937;DHT22;13733;51.178;4.450;2022-09-09T10:08:17;17.60;99.90
25937;DHT22;13733;51.178;4.450;2022-09-09T10:13:44;17.40;99.90
25937;DHT22;13733;51.178;4.450;2022-09-09T10:16:45;17.50;99.90
25937;DHT22;13733;51.178;4.450;2022-09-09T10:19:31;17.60;99.90
25937;DHT22;13733;51.178;4.450;2022-09-09T10:22:05;17.50;99.90
25937;DHT22;13733;51.178;4.450;2022-09-09T10:30:45;18.00;99.90
25937;DHT22;13733;51.178;4.450;2022-09-09T10:33:57;18.20;99.90
25937;DHT22;13733;51.178;4.450;2022-09-09T10:36:27;18.20;99.90
25937;DHT22;13733;51.178;4.450;2022-09-09T10:39:02;18.10;99.90
25937;DHT22;13733;51.178;4.450;2022-09-09T10:42:01;18.20;99.90
25937;DHT22;13733;51.178;4.450;2022-09-09T10:47:26;18.40;99.90
25937;DHT22;13733;51.178;4.450;2022-09-09T10:55:26;18.50;99.90
25937;DHT22;13733;51.178;4.450;2022-09-09T10:57:58;18.70;99.90
25937;DHT22;13733;51.178;4.450;2022-09-09T11:00:43;18.70;99.90
25937;DHT22;13733;51.178;4.450;2022-09-09T11:03:24;18.90;99.90
25937;DHT22;13733;51.178;4.450;2022-09-09T11:08:26;18.70;99.90
25937;DHT22;13733;51.178;4.450;2022-09-09T11:21:49;19.00;99.90
25937;DHT22;13733;51.178;4.450;2022-09-09T11:26:52;20.00;99.90
25937;DHT22;13733;51.178;4.450;2022-09-09T11:35:07;20.20;99.90
25937;DHT22;13733;51.178;4.450;2022-09-09T11:40:24;20.30;99.90
25937;DHT22;13733;51.178;4.450;2022-09-09T11:43:12;20.00;99.90
25937;DHT22;13733;51.178;4.450;2022-09-09T11:45:41;19.90;99.90
25937;DHT22;13733;51.178;4.450;2022-09-09T11:48:28;20.20;99.90
25937;DHT22;13733;51.178;4.450;2022-09-09T11:51:08;20.60;99.90
25937;DHT22;13733;51.178;4.450;2022-09-09T11:53:35;20.50;99.90
25937;DHT22;13733;51.178;4.450;2022-09-09T11:56:07;20.40;99.90
25937;DHT22;13733;51.178;4.450;2022-09-09T11:58:38;20.60;99.90
25937;DHT22;13733;51.178;4.450;2022-09-09T12:01:36;20.60;99.90
25937;DHT22;13733;51.178;4.450;2022-09-09T12:06:32;21.00;99.90
25937;DHT22;13733;51.178;4.450;2022-09-09T12:11:32;20.80;99.90
25937;DHT22;13733;51.178;4.450;2022-09-09T12:13:59;20.90;99.90
25937;DHT22;13733;51.178;4.450;2022-09-09T12:16:33;21.10;99.90
25937;DHT22;13733;51.178;4.450;2022-09-09T12:19:22;21.30;99.90
25937;DHT22;13733;51.178;4.450;2022-09-09T12:21:58;21.40;99.90
25937;DHT22;13733;51.178;4.450;2022-09-09T12:24:32;21.80;99.90
25937;DHT22;13733;51.178;4.450;2022-09-09T12:27:14;21.60;99.90
25937;DHT22;13733;51.178;4.450;2022-09-09T12:32:24;22.50;99.90
25937;DHT22;13733;51.178;4.450;2022-09-09T12:37:38;22.10;99.90
25937;DHT22;13733;51.178;4.450;2022-09-09T12:40:18;21.70;99.90
25937;DHT22;13733;51.178;4.450;2022-09-09T12:42:44;21.40;99.90
25937;DHT22;13733;51.178;4.450;2022-09-09T12:45:26;20.90;99.90
25937;DHT22;13733;51.178;4.450;2022-09-09T12:48:11;20.90;99.90
25937;DHT22;13733;51.178;4.450;2022-09-09T12:50:46;20.90;99.90
25937;DHT22;13733;51.178;4.450;2022-09-09T12:53:26;20.60;99.90
25937;DHT22;13733;51.178;4.450;2022-09-09T12:56:01;20.60;99.90
25937;DHT22;13733;51.178;4.450;2022-09-09T12:58:30;20.90;99.90
25937;DHT22;13733;51.178;4.450;2022-09-09T13:01:00;21.10;99.90
25937;DHT22;13733;51.178;4.450;2022-09-09T13:03:27;21.30;99.90
25937;DHT22;13733;51.178;4.450;2022-09-09T13:05:58;21.90;99.90
25937;DHT22;13733;51.178;4.450;2022-09-09T13:08:25;23.20;99.90
25937;DHT22;13733;51.178;4.450;2022-09-09T13:11:07;23.60;99.90
25937;DHT22;13733;51.178;4.450;2022-09-09T13:13:38;23.40;99.90
25937;DHT22;13733;51.178;4.450;2022-09-09T13:16:17;23.60;99.90
25937;DHT22;13733;51.178;4.450;2022-09-09T13:18:43;23.30;99.90
25937;DHT22;13733;51.178;4.450;2022-09-09T13:21:10;22.80;99.90
25937;DHT22;13733;51.178;4.450;2022-09-09T13:23:37;22.50;99.90
25937;DHT22;13733;51.178;4.450;2022-09-09T13:26:05;22.60;99.90
25937;DHT22;13733;51.178;4.450;2022-09-09T13:28:33;22.20;99.90
25937;DHT22;13733;51.178;4.450;2022-09-09T13:31:05;22.20;99.90
25937;DHT22;13733;51.178;4.450;2022-09-09T13:33:38;23.00;99.90
25937;DHT22;13733;51.178;4.450;2022-09-09T13:36:07;24.10;99.90
25937;DHT22;13733;51.178;4.450;2022-09-09T13:41:19;25.00;99.90
25937;DHT22;13733;51.178;4.450;2022-09-09T13:43:47;24.90;99.90
25937;DHT22;13733;51.178;4.450;2022-09-09T13:46:33;24.70;99.90
25937;DHT22;13733;51.178;4.450;2022-09-09T13:49:19;24.50;99.90
25937;DHT22;13733;51.178;4.450;2022-09-09T13:51:51;23.80;99.90
25937;DHT22;13733;51.178;4.450;2022-09-09T13:54:20;23.10;99.90
25937;DHT22;13733;51.178;4.450;2022-09-09T13:56:46;23.40;99.90
25937;DHT22;13733;51.178;4.450;2022-09-09T13:59:15;23.10;99.90
25937;DHT22;13733;51.178;4.450;2022-09-09T14:01:41;23.50;99.90
25937;DHT22;13733;51.178;4.450;2022-09-09T14:04:08;24.00;99.90
25937;DHT22;13733;51.178;4.450;2022-09-09T14:06:35;23.40;99.90
25937;DHT22;13733;51.178;4.450;2022-09-09T14:09:09;23.20;99.90
25937;DHT22;13733;51.178;4.450;2022-09-09T14:11:35;22.90;99.90
25937;DHT22;13733;51.178;4.450;2022-09-09T14:14:00;22.60;99.90
25937;DHT22;13733;51.178;4.450;2022-09-09T14:16:26;22.50;99.90
25937;DHT22;13733;51.178;4.450;2022-09-09T14:18:53;22.50;99.90
25937;DHT22;13733;51.178;4.450;2022-09-09T14:21:21;22.40;99.90
25937;DHT22;13733;51.178;4.450;2022-09-09T14:23:47;22.70;99.90
25937;DHT22;13733;51.178;4.450;2022-09-09T14:26:14;22.90;99.90
25937;DHT22;13733;51.178;4.450;2022-09-09T14:28:40;23.10;99.90
25937;DHT22;13733;51.178;4.450;2022-09-09T14:31:06;23.70;99.90
25937;DHT22;13733;51.178;4.450;2022-09-09T14:33:32;23.90;99.90
25937;DHT22;13733;51.178;4.450;2022-09-09T14:36:02;23.70;99.90
25937;DHT22;13733;51.178;4.450;2022-09-09T14:38:30;23.40;99.90
25937;DHT22;13733;51.178;4.450;2022-09-09T14:40:56;23.10;99.90
25937;DHT22;13733;51.178;4.450;2022-09-09T14:43:24;22.90;99.90
25937;DHT22;13733;51.178;4.450;2022-09-09T14:45:49;23.10;99.90
25937;DHT22;13733;51.178;4.450;2022-09-09T14:48:17;23.00;99.90
25937;DHT22;13733;51.178;4.450;2022-09-09T14:50:43;23.00;99.90
25937;DHT22;13733;51.178;4.450;2022-09-09T14:53:09;23.50;99.90
25937;DHT22;13733;51.178;4.450;2022-09-09T14:55:36;24.00;99.90
25937;DHT22;13733;51.178;4.450;2022-09-09T14:58:03;23.40;99.90
25937;DHT22;13733;51.178;4.450;2022-09-09T15:00:29;23.30;99.90
25937;DHT22;13733;51.178;4.450;2022-09-09T15:02:55;22.90;99.90
25937;DHT22;13733;51.178;4.450;2022-09-09T15:05:22;22.70;99.90
25937;DHT22;13733;51.178;4.450;2022-09-09T15:07:48;22.30;99.90
25937;DHT22;13733;51.178;4.450;2022-09-09T15:10:16;22.20;99.90
25937;DHT22;13733;51.178;4.450;2022-09-09T15:12:43;21.90;99.90
25937;DHT22;13733;51.178;4.450;2022-09-09T15:15:09;21.90;99.90
25937;DHT22;13733;51.178;4.450;2022-09-09T15:17:35;21.80;99.90
25937;DHT22;13733;51.178;4.450;2022-09-09T15:20:03;21.70;99.90
25937;DHT22;13733;51.178;4.450;2022-09-09T15:22:31;21.50;99.90
25937;DHT22;13733;51.178;4.450;2022-09-09T15:24:57;21.30;99.90
25937;DHT22;13733;51.178;4.450;2022-09-09T15:27:23;21.10;99.90
25937;DHT22;13733;51.178;4.450;2022-09-09T15:29:50;21.20;99.90
25937;DHT22;13733;51.178;4.450;2022-09-09T15:32:17;21.70;99.90
25937;DHT22;13733;51.178;4.450;2022-09-09T15:34:43;22.40;99.90
25937;DHT22;13733;51.178;4.450;2022-09-09T15:37:12;23.90;99.90
25937;DHT22;13733;51.178;4.450;2022-09-09T15:39:39;24.50;99.90
25937;DHT22;13733;51.178;4.450;2022-09-09T15:42:06;24.30;99.90
25937;DHT22;13733;51.178;4.450;2022-09-09T15:44:42;23.70;99.90
25937;DHT22;13733;51.178;4.450;2022-09-09T15:47:11;23.20;99.90
25937;DHT22;13733;51.178;4.450;2022-09-09T15:49:38;22.70;99.90
25937;DHT22;13733;51.178;4.450;2022-09-09T15:52:04;22.30;99.90
25937;DHT22;13733;51.178;4.450;2022-09-09T15:54:35;21.90;99.90
25937;DHT22;13733;51.178;4.450;2022-09-09T15:57:04;21.70;99.90
25937;DHT22;13733;51.178;4.450;2022-09-09T15:59:31;21.30;99.90
25937;DHT22;13733;51.178;4.450;2022-09-09T16:01:59;21.10;99.90
25937;DHT22;13733;51.178;4.450;2022-09-09T16:04:26;21.20;99.90
25937;DHT22;13733;51.178;4.450;2022-09-09T16:06:53;20.80;99.90
25937;DHT22;13733;51.178;4.450;2022-09-09T16:09:20;20.50;99.90
25937;DHT22;13733;51.178;4.450;2022-09-09T16:11:47;20.50;99.90
25937;DHT22;13733;51.178;4.450;2022-09-09T16:14:14;20.40;99.90
25937;DHT22;13733;51.178;4.450;2022-09-09T16:16:41;20.20;99.90
25937;DHT22;13733;51.178;4.450;2022-09-09T16:19:09;20.20;99.90
25937;DHT22;13733;51.178;4.450;2022-09-09T16:21:39;20.10;99.90
25937;DHT22;13733;51.178;4.450;2022-09-09T16:24:07;20.50;99.90
25937;DHT22;13733;51.178;4.450;2022-09-09T16:26:35;20.90;99.90
25937;DHT22;13733;51.178;4.450;2022-09-09T16:29:01;21.00;99.90
25937;DHT22;13733;51.178;4.450;2022-09-09T16:31:30;21.00;99.90
25937;DHT22;13733;51.178;4.450;2022-09-09T16:33:57;21.00;99.90
25937;DHT22;13733;51.178;4.450;2022-09-09T16:36:28;21.00;99.90
25937;DHT22;13733;51.178;4.450;2022-09-09T16:39:02;20.90;99.90
25937;DHT22;13733;51.178;4.450;2022-09-09T16:41:29;20.80;99.90
25937;DHT22;13733;51.178;4.450;2022-09-09T16:43:56;20.70;99.90
25937;DHT22;13733;51.178;4.450;2022-09-09T16:46:22;20.60;99.90
25937;DHT22;13733;51.178;4.450;2022-09-09T16:48:50;20.50;99.90
25937;DHT22;13733;51.178;4.450;2022-09-09T16:51:21;20.50;99.90
25937;DHT22;13733;51.178;4.450;2022-09-09T16:53:50;20.20;99.90
25937;DHT22;13733;51.178;4.450;2022-09-09T16:56:18;19.90;99.90
25937;DHT22;13733;51.178;4.450;2022-09-09T16:58:49;19.50;99.90
25937;DHT22;13733;51.178;4.450;2022-09-09T17:01:15;19.40;99.90
25937;DHT22;13733;51.178;4.450;2022-09-09T17:03:41;19.30;99.90
25937;DHT22;13733;51.178;4.450;2022-09-09T17:06:14;19.00;99.90
25937;DHT22;13733;51.178;4.450;2022-09-09T17:08:41;19.00;99.90
25937;DHT22;13733;51.178;4.450;2022-09-09T17:11:15;18.80;99.90
25937;DHT22;13733;51.178;4.450;2022-09-09T17:13:45;18.80;99.90
25937;DHT22;13733;51.178;4.450;2022-09-09T17:16:12;18.90;99.90
25937;DHT22;13733;51.178;4.450;2022-09-09T17:18:39;18.80;99.90
25937;DHT22;13733;51.178;4.450;2022-09-09T17:21:11;18.90;99.90
25937;DHT22;13733;51.178;4.450;2022-09-09T17:23:39;18.90;99.90
25937;DHT22;13733;51.178;4.450;2022-09-09T17:26:06;18.80;99.90
25937;DHT22;13733;51.178;4.450;2022-09-09T17:28:39;18.80;99.90
25937;DHT22;13733;51.178;4.450;2022-09-09T17:31:07;18.80;99.90
25937;DHT22;13733;51.178;4.450;2022-09-09T17:33:34;18.90;99.90
25937;DHT22;13733;51.178;4.450;2022-09-09T17:36:05;19.00;99.90
25937;DHT22;13733;51.178;4.450;2022-09-09T17:38:32;19.10;99.90
25937;DHT22;13733;51.178;4.450;2022-09-09T17:41:06;19.10;99.90
25937;DHT22;13733;51.178;4.450;2022-09-09T17:43:33;19.10;99.90
25937;DHT22;13733;51.178;4.450;2022-09-09T17:48:42;19.00;99.90
25937;DHT22;13733;51.178;4.450;2022-09-09T17:51:12;19.10;99.90